createdAt,value
2018-10-18T00:01:38.145Z,14.17
2018-10-18T00:04:06.643Z,14.11
2018-10-18T00:06:35.145Z,13.66
2018-10-18T00:09:04.768Z,13.83
2018-10-18T00:11:33.377Z,13.68
2018-10-18T00:14:01.899Z,13.59
2018-10-18T00:16:30.481Z,13.99
2018-10-18T00:18:58.995Z,13.87
2018-10-18T00:21:27.480Z,13.80
2018-10-18T00:23:56.093Z,13.87
2018-10-18T00:26:24.673Z,13.82
2018-10-18T00:28:53.241Z,13.48
2018-10-18T00:31:21.776Z,13.89
2018-10-18T00:33:50.321Z,13.76
2018-10-18T00:36:18.865Z,13.85
2018-10-18T00:38:47.280Z,13.64
2018-10-18T00:41:15.806Z,13.79
2018-10-18T00:43:44.268Z,13.82
2018-10-18T00:46:12.730Z,13.89
2018-10-18T00:48:41.193Z,13.72
2018-10-18T00:51:09.602Z,13.45
2018-10-18T00:53:38.028Z,13.66
2018-10-18T00:56:06.513Z,13.77
2018-10-18T00:58:34.994Z,13.74
2018-10-18T01:01:03.566Z,13.73
2018-10-18T01:03:32.024Z,13.51
2018-10-18T01:06:00.619Z,13.49
2018-10-18T01:08:29.126Z,13.35
2018-10-18T01:10:57.594Z,13.48
2018-10-18T01:13:26.065Z,13.59
2018-10-18T01:15:54.565Z,13.65
2018-10-18T01:18:23.019Z,13.75
2018-10-18T01:20:51.478Z,13.15
2018-10-18T01:23:19.998Z,13.30
2018-10-18T01:28:13.597Z,13.51
2018-10-18T01:30:42.017Z,13.35
2018-10-18T01:33:10.389Z,13.65
2018-10-18T01:35:38.756Z,13.57
2018-10-18T01:38:07.202Z,13.50
2018-10-18T01:40:35.657Z,13.53
2018-10-18T01:43:04.112Z,13.26
2018-10-18T01:45:32.488Z,13.66
2018-10-18T01:48:00.891Z,13.48
2018-10-18T01:50:29.244Z,13.31
2018-10-18T01:52:57.583Z,13.30
2018-10-18T01:55:25.962Z,13.42
2018-10-18T01:57:54.358Z,13.45
2018-10-18T02:00:22.803Z,13.43
2018-10-18T02:02:51.176Z,13.77
2018-10-18T02:05:19.539Z,13.53
2018-10-18T02:07:47.936Z,13.38
2018-10-18T02:10:16.291Z,13.86
2018-10-18T02:12:44.674Z,13.69
2018-10-18T02:15:13.028Z,13.45
2018-10-18T02:17:41.548Z,13.39
2018-10-18T02:20:10.960Z,13.62
2018-10-18T02:22:39.736Z,13.43
2018-10-18T02:25:08.200Z,13.52
2018-10-18T02:27:36.597Z,13.29
2018-10-18T02:30:05.675Z,13.29
2018-10-18T02:32:34.003Z,12.99
2018-10-18T02:35:02.396Z,13.20
2018-10-18T02:37:30.786Z,13.17
2018-10-18T02:39:59.183Z,13.29
2018-10-18T02:42:27.592Z,13.42
2018-10-18T02:44:55.961Z,13.39
2018-10-18T02:47:24.341Z,12.92
2018-10-18T02:49:52.697Z,13.00
2018-10-18T02:52:21.069Z,13.38
2018-10-18T02:54:49.523Z,13.30
2018-10-18T02:57:17.876Z,13.43
2018-10-18T02:59:46.216Z,13.58
2018-10-18T03:02:14.576Z,13.58
2018-10-18T03:04:42.900Z,13.71
2018-10-18T03:07:11.237Z,13.29
2018-10-18T03:09:39.617Z,13.36
2018-10-18T03:12:07.986Z,13.02
2018-10-18T03:14:36.356Z,13.33
2018-10-18T03:17:04.892Z,13.57
2018-10-18T03:19:33.236Z,13.93
2018-10-18T03:22:01.612Z,14.17
2018-10-18T03:24:30.010Z,14.28
2018-10-18T03:26:58.447Z,14.42
2018-10-18T03:29:26.879Z,14.82
2018-10-18T03:31:55.413Z,14.49
2018-10-18T03:34:23.821Z,15.12
2018-10-18T03:36:52.272Z,15.09
2018-10-18T03:39:20.689Z,15.70
2018-10-18T03:41:49.107Z,15.67
2018-10-18T03:44:24.108Z,15.68
2018-10-18T03:46:52.529Z,15.70
2018-10-18T03:49:20.950Z,15.96
2018-10-18T03:51:49.316Z,15.97
2018-10-18T03:54:17.729Z,16.13
2018-10-18T03:56:46.281Z,16.05
2018-10-18T03:59:14.640Z,16.58
2018-10-18T04:01:43.092Z,16.68
2018-10-18T04:04:11.492Z,16.35
2018-10-18T04:06:39.889Z,16.29
2018-10-18T04:09:09.722Z,16.52
2018-10-18T04:11:38.296Z,16.61
2018-10-18T04:14:07.076Z,16.75
2018-10-18T04:16:35.509Z,16.90
2018-10-18T04:19:03.924Z,16.98
2018-10-18T04:21:32.305Z,16.98
2018-10-18T04:24:00.781Z,16.47
2018-10-18T04:26:29.134Z,16.82
2018-10-18T04:28:57.544Z,16.47
2018-10-18T04:31:26.161Z,16.65
2018-10-18T04:33:54.556Z,16.99
2018-10-18T04:36:22.980Z,16.60
2018-10-18T04:38:51.384Z,16.57
2018-10-18T04:41:19.812Z,16.72
2018-10-18T04:43:48.204Z,16.57
2018-10-18T04:46:16.612Z,16.44
2018-10-18T04:48:45.049Z,16.77
2018-10-18T04:51:13.324Z,16.53
2018-10-18T04:53:41.754Z,16.12
2018-10-18T04:56:10.240Z,16.30
2018-10-18T04:58:38.700Z,16.05
2018-10-18T05:01:07.236Z,16.12
2018-10-18T05:03:35.628Z,16.60
2018-10-18T05:06:05.177Z,16.61
2018-10-18T05:08:33.571Z,16.57
2018-10-18T05:11:02.265Z,16.33
2018-10-18T05:13:30.636Z,16.72
2018-10-18T05:15:59.014Z,16.55
2018-10-18T05:21:11.499Z,16.86
2018-10-18T05:23:40.132Z,16.83
2018-10-18T05:26:14.942Z,16.96
2018-10-18T05:28:43.407Z,16.65
2018-10-18T05:31:11.973Z,16.63
2018-10-18T05:33:40.394Z,16.23
2018-10-18T05:36:08.912Z,16.19
2018-10-18T05:38:37.408Z,16.24
2018-10-18T05:41:05.936Z,16.83
2018-10-18T05:43:34.455Z,16.73
2018-10-18T05:46:03.036Z,16.71
2018-10-18T05:48:31.517Z,16.29
2018-10-18T05:51:00.033Z,16.58
2018-10-18T05:53:28.690Z,16.08
2018-10-18T05:55:57.179Z,16.39
2018-10-18T05:58:25.753Z,16.43
2018-10-18T06:00:55.289Z,16.23
2018-10-18T06:03:23.835Z,16.42
2018-10-18T06:05:52.387Z,16.32
2018-10-18T06:08:21.031Z,16.69
2018-10-18T06:11:01.674Z,16.28
2018-10-18T06:13:31.127Z,16.55
2018-10-18T06:16:00.601Z,16.55
2018-10-18T06:18:29.129Z,16.53
2018-10-18T06:20:57.760Z,16.67
2018-10-18T06:23:26.281Z,16.77
2018-10-18T06:25:54.705Z,16.93
2018-10-18T06:28:23.149Z,16.79
2018-10-18T06:30:51.576Z,16.77
2018-10-18T06:33:20.037Z,16.87
2018-10-18T06:35:48.441Z,17.14
2018-10-18T06:38:16.868Z,17.32
2018-10-18T06:40:45.344Z,17.30
2018-10-18T06:43:14.844Z,17.13
2018-10-18T06:45:43.253Z,17.07
2018-10-18T06:48:11.709Z,16.74
2018-10-18T06:50:40.129Z,17.15
2018-10-18T06:53:08.636Z,17.32
2018-10-18T06:55:37.169Z,17.39
2018-10-18T06:58:05.744Z,17.51
2018-10-18T07:00:34.224Z,17.78
2018-10-18T07:03:02.666Z,17.64
2018-10-18T07:05:31.033Z,17.77
2018-10-18T07:07:59.552Z,17.78
2018-10-18T07:10:28.092Z,17.81
2018-10-18T07:12:56.664Z,17.90
2018-10-18T07:15:25.156Z,17.56
2018-10-18T07:17:53.757Z,17.94
2018-10-18T07:20:22.288Z,17.98
2018-10-18T07:22:57.412Z,18.29
2018-10-18T07:25:26.015Z,18.57
2018-10-18T07:27:54.346Z,18.42
2018-10-18T07:30:22.733Z,18.53
2018-10-18T07:32:51.202Z,18.53
2018-10-18T07:35:20.614Z,18.62
2018-10-18T07:37:48.998Z,19.13
2018-10-18T07:40:17.412Z,19.33
2018-10-18T07:42:45.797Z,19.20
2018-10-18T07:45:14.749Z,19.59
2018-10-18T07:47:43.805Z,19.93
2018-10-18T07:50:12.676Z,19.65
2018-10-18T07:52:41.112Z,19.63
2018-10-18T07:55:10.409Z,19.99
2018-10-18T07:57:38.890Z,20.25
2018-10-18T08:00:10.516Z,19.92
2018-10-18T08:02:38.955Z,19.53
2018-10-18T08:05:07.752Z,19.30
2018-10-18T08:07:36.220Z,19.95
2018-10-18T08:10:05.817Z,19.66
2018-10-18T08:12:34.220Z,19.63
2018-10-18T08:15:02.697Z,20.08
2018-10-18T08:17:31.125Z,19.37
2018-10-18T08:19:59.608Z,19.49
2018-10-18T08:22:28.108Z,18.99
2018-10-18T08:24:56.508Z,19.75
2018-10-18T08:27:25.065Z,19.60
2018-10-18T08:29:53.633Z,20.17
2018-10-18T08:32:23.164Z,20.61
2018-10-18T08:34:51.692Z,22.01
2018-10-18T08:37:20.225Z,21.93
2018-10-18T08:39:48.741Z,21.68
2018-10-18T08:42:17.227Z,21.89
2018-10-18T08:44:45.732Z,22.03
2018-10-18T08:47:14.288Z,21.58
2018-10-18T08:49:42.749Z,21.68
2018-10-18T08:52:11.256Z,21.42
2018-10-18T08:54:39.828Z,21.04
2018-10-18T08:57:08.333Z,20.46
2018-10-18T08:59:36.860Z,20.80
2018-10-18T09:02:05.547Z,20.06
2018-10-18T09:04:34.078Z,20.07
2018-10-18T09:07:02.607Z,19.43
2018-10-18T09:09:31.260Z,19.03
2018-10-18T09:11:59.807Z,19.78
2018-10-18T09:14:28.634Z,20.51
2018-10-18T09:16:58.130Z,20.54
2018-10-18T09:19:26.606Z,20.65
2018-10-18T09:21:56.072Z,20.75
2018-10-18T09:24:24.508Z,20.32
2018-10-18T09:26:52.981Z,20.01
2018-10-18T09:29:21.537Z,20.24
2018-10-18T09:31:50.014Z,19.89
2018-10-18T09:34:18.573Z,20.19
2018-10-18T09:36:47.070Z,19.33
2018-10-18T09:39:15.553Z,19.85
2018-10-18T09:41:44.088Z,19.59
2018-10-18T09:44:12.614Z,18.91
2018-10-18T09:46:41.094Z,19.32
2018-10-18T09:49:09.608Z,19.35
2018-10-18T09:51:38.004Z,19.33
2018-10-18T09:54:06.619Z,18.77
2018-10-18T09:56:35.148Z,17.89
2018-10-18T09:59:04.767Z,17.87
2018-10-18T10:01:38.564Z,18.19
2018-10-18T10:04:07.010Z,18.59
2018-10-18T10:06:35.419Z,17.92
2018-10-18T10:09:04.105Z,17.88
2018-10-18T10:11:32.569Z,18.17
2018-10-18T10:14:01.069Z,18.09
2018-10-18T10:16:29.518Z,17.48
2018-10-18T10:18:58.095Z,18.06
2018-10-18T10:21:26.564Z,18.06
2018-10-18T10:23:55.092Z,18.27
2018-10-18T10:26:23.679Z,17.81
2018-10-18T10:28:52.141Z,17.95
2018-10-18T10:31:20.621Z,17.89
2018-10-18T10:33:48.996Z,17.64
2018-10-18T10:36:17.468Z,17.80
2018-10-18T10:38:45.950Z,17.38
2018-10-18T10:41:14.448Z,18.12
2018-10-18T10:43:42.779Z,18.18
2018-10-18T10:46:11.297Z,17.50
2018-10-18T10:48:39.824Z,18.28
2018-10-18T10:51:09.302Z,18.43
2018-10-18T10:53:38.355Z,18.24
2018-10-18T10:56:08.161Z,18.17
2018-10-18T10:58:37.784Z,18.10
2018-10-18T11:01:15.689Z,18.12
2018-10-18T11:03:45.652Z,18.48
2018-10-18T11:06:15.439Z,18.66
2018-10-18T11:08:44.929Z,18.57
2018-10-18T11:11:15.281Z,18.12
2018-10-18T11:13:44.734Z,18.38
2018-10-18T11:16:14.046Z,18.68
2018-10-18T11:18:43.833Z,18.56
2018-10-18T11:21:17.650Z,18.93
2018-10-18T11:23:48.088Z,19.02
2018-10-18T11:28:54.737Z,19.45
2018-10-18T11:31:24.706Z,18.92
2018-10-18T11:33:58.874Z,19.64
2018-10-18T11:36:28.217Z,19.54
2018-10-18T11:38:57.572Z,19.66
2018-10-18T11:41:27.028Z,19.77
2018-10-18T11:43:56.438Z,18.73
2018-10-18T11:46:26.447Z,18.93
2018-10-18T11:48:55.974Z,19.26
2018-10-18T11:51:25.526Z,19.06
2018-10-18T11:53:55.062Z,19.18
2018-10-18T11:56:24.507Z,18.61
2018-10-18T11:58:53.945Z,18.91
2018-10-18T12:01:23.535Z,19.05
2018-10-18T12:03:59.329Z,19.03
2018-10-18T12:06:28.832Z,18.95
2018-10-18T12:08:58.169Z,18.98
2018-10-18T12:11:26.791Z,18.92
2018-10-18T12:13:55.251Z,19.21
2018-10-18T12:16:23.719Z,19.41
2018-10-18T12:18:52.197Z,19.72
2018-10-18T12:21:20.591Z,20.63
2018-10-18T12:23:49.027Z,20.82
2018-10-18T12:26:17.702Z,20.55
2018-10-18T12:28:46.174Z,21.25
2018-10-18T12:31:14.958Z,20.52
2018-10-18T12:33:43.445Z,20.13
2018-10-18T12:36:11.844Z,20.21
2018-10-18T12:38:40.335Z,19.34
2018-10-18T12:41:08.874Z,19.38
2018-10-18T12:43:37.318Z,19.16
2018-10-18T12:46:06.060Z,19.56
2018-10-18T12:48:34.666Z,19.69
2018-10-18T12:51:03.091Z,19.45
2018-10-18T12:53:31.762Z,18.85
2018-10-18T12:56:00.283Z,18.25
2018-10-18T12:58:28.751Z,18.69
2018-10-18T13:00:57.232Z,18.98
2018-10-18T13:03:25.632Z,18.85
2018-10-18T13:05:54.080Z,18.44
2018-10-18T13:08:22.533Z,18.31
2018-10-18T13:10:50.959Z,18.77
2018-10-18T13:13:19.353Z,19.02
2018-10-18T13:15:47.761Z,19.10
2018-10-18T13:18:16.230Z,18.83
2018-10-18T13:20:44.723Z,18.91
2018-10-18T13:23:13.156Z,18.86
2018-10-18T13:25:41.444Z,19.09
2018-10-18T13:28:09.783Z,18.63
2018-10-18T13:30:38.143Z,18.14
2018-10-18T13:33:06.627Z,17.63
2018-10-18T13:35:35.013Z,18.54
2018-10-18T13:38:03.666Z,17.76
2018-10-18T13:40:32.214Z,18.07
2018-10-18T13:43:00.730Z,18.58
2018-10-18T13:45:29.191Z,18.49
2018-10-18T13:47:57.697Z,18.83
2018-10-18T13:50:26.173Z,18.92
2018-10-18T13:52:54.726Z,18.55
2018-10-18T13:55:25.200Z,18.60
2018-10-18T13:57:53.645Z,18.73
2018-10-18T14:00:26.665Z,18.22
2018-10-18T14:02:55.564Z,18.88
2018-10-18T14:05:24.399Z,18.66
2018-10-18T14:07:53.751Z,18.69
2018-10-18T14:10:22.223Z,18.78
2018-10-18T14:12:51.241Z,18.38
2018-10-18T14:15:19.666Z,18.94
2018-10-18T14:17:48.178Z,18.87
2018-10-18T14:20:16.619Z,19.12
2018-10-18T14:22:44.965Z,19.17
2018-10-18T14:25:13.492Z,19.48
2018-10-18T14:27:50.012Z,19.28
2018-10-18T14:30:18.714Z,19.42
2018-10-18T14:32:47.205Z,19.35
2018-10-18T14:35:36.763Z,17.89
2018-10-18T14:38:05.240Z,19.00
2018-10-18T14:40:33.617Z,18.43
2018-10-18T14:43:02.147Z,18.79
2018-10-18T14:45:30.521Z,19.19
2018-10-18T14:47:58.962Z,18.46
2018-10-18T14:50:27.418Z,18.29
2018-10-18T14:52:55.716Z,18.41
2018-10-18T14:55:24.123Z,18.27
2018-10-18T14:57:52.573Z,18.96
2018-10-18T15:00:20.995Z,18.37
2018-10-18T15:02:49.381Z,18.17
2018-10-18T15:05:17.921Z,18.37
2018-10-18T15:07:47.207Z,18.75
2018-10-18T15:10:15.577Z,18.91
2018-10-18T15:12:44.126Z,18.84
2018-10-18T15:15:13.721Z,18.43
2018-10-18T15:17:42.480Z,18.44
2018-10-18T15:20:11.812Z,18.94
2018-10-18T15:22:41.039Z,17.83
2018-10-18T15:25:10.388Z,18.30
2018-10-18T15:27:39.117Z,18.56
2018-10-18T15:30:08.387Z,19.05
2018-10-18T15:32:37.378Z,18.63
2018-10-18T15:35:06.421Z,18.57
2018-10-18T15:37:34.809Z,18.57
2018-10-18T15:40:03.388Z,18.92
2018-10-18T15:42:31.904Z,18.64
2018-10-18T15:45:00.452Z,18.92
2018-10-18T15:47:28.861Z,18.91
2018-10-18T15:49:57.419Z,18.70
2018-10-18T15:52:25.896Z,17.96
2018-10-18T15:54:54.314Z,18.30
2018-10-18T15:57:22.775Z,18.10
2018-10-18T15:59:51.171Z,18.15
2018-10-18T16:02:19.623Z,17.86
2018-10-18T16:04:48.076Z,17.62
2018-10-18T16:07:16.511Z,17.73
2018-10-18T16:09:44.982Z,17.71
2018-10-18T16:12:13.503Z,17.72
2018-10-18T16:14:41.983Z,17.53
2018-10-18T16:17:12.463Z,17.41
2018-10-18T16:19:40.927Z,17.58
2018-10-18T16:22:09.483Z,17.39
2018-10-18T16:24:38.007Z,17.29
2018-10-18T16:27:06.503Z,17.27
2018-10-18T16:29:35.027Z,17.29
2018-10-18T16:32:03.612Z,17.24
2018-10-18T16:34:32.124Z,17.18
2018-10-18T16:37:00.532Z,17.27
2018-10-18T16:39:28.975Z,17.12
2018-10-18T16:41:57.390Z,17.21
2018-10-18T16:44:25.836Z,17.18
2018-10-18T16:46:54.302Z,16.75
2018-10-18T16:49:22.807Z,16.50
2018-10-18T16:51:51.702Z,16.41
2018-10-18T16:54:20.171Z,16.30
2018-10-18T16:56:48.600Z,16.24
2018-10-18T16:59:17.114Z,16.22
2018-10-18T17:01:45.547Z,16.15
2018-10-18T17:04:14.052Z,16.34
2018-10-18T17:06:42.375Z,16.04
2018-10-18T17:09:11.435Z,16.36
2018-10-18T17:11:39.936Z,16.24
2018-10-18T17:14:08.575Z,16.25
2018-10-18T17:16:36.934Z,16.28
2018-10-18T17:19:05.861Z,16.50
2018-10-18T17:21:34.327Z,16.56
2018-10-18T17:24:02.882Z,16.58
2018-10-18T17:26:31.455Z,16.68
2018-10-18T17:28:59.900Z,16.42
2018-10-18T17:31:28.483Z,16.47
2018-10-18T17:33:57.114Z,16.73
2018-10-18T17:36:25.921Z,16.62
2018-10-18T17:38:54.410Z,16.90
2018-10-18T17:41:22.856Z,16.93
2018-10-18T17:43:51.283Z,16.84
2018-10-18T17:46:19.810Z,16.94
2018-10-18T17:48:48.075Z,16.83
2018-10-18T17:51:16.431Z,17.13
2018-10-18T17:53:44.967Z,17.14
2018-10-18T17:56:13.493Z,16.98
2018-10-18T17:58:41.884Z,17.19
2018-10-18T18:01:10.363Z,16.40
2018-10-18T18:03:38.725Z,17.18
2018-10-18T18:06:07.287Z,17.05
2018-10-18T18:08:35.551Z,17.04
2018-10-18T18:11:03.995Z,16.60
2018-10-18T18:13:32.517Z,16.99
2018-10-18T18:16:00.931Z,16.98
2018-10-18T18:18:29.269Z,17.00
2018-10-18T18:20:57.671Z,16.65
2018-10-18T18:23:26.106Z,16.76
2018-10-18T18:25:54.606Z,17.05
2018-10-18T18:28:22.980Z,17.05
2018-10-18T18:30:51.310Z,17.06
2018-10-18T18:33:19.791Z,16.92
2018-10-18T18:35:48.143Z,17.00
2018-10-18T18:38:16.495Z,17.07
2018-10-18T18:40:44.808Z,16.93
2018-10-18T18:43:13.090Z,16.79
2018-10-18T18:45:42.651Z,16.38
2018-10-18T18:48:10.956Z,16.96
2018-10-18T18:50:39.238Z,17.04
2018-10-18T18:53:07.802Z,17.35
2018-10-18T18:55:40.693Z,17.49
2018-10-18T18:58:09.019Z,17.59
2018-10-18T19:00:37.364Z,16.91
2018-10-18T19:03:06.267Z,16.76
2018-10-18T19:05:34.541Z,17.30
2018-10-18T19:08:02.880Z,17.39
2018-10-18T19:10:31.182Z,16.98
2018-10-18T19:13:00.029Z,17.18
2018-10-18T19:15:28.499Z,16.91
2018-10-18T19:17:56.914Z,17.26
2018-10-18T19:20:25.299Z,17.10
2018-10-18T19:22:53.706Z,16.90
2018-10-18T19:25:22.117Z,16.43
2018-10-18T19:27:50.512Z,16.85
2018-10-18T19:30:18.880Z,16.30
2018-10-18T19:32:47.319Z,16.53
2018-10-18T19:35:15.787Z,16.00
2018-10-18T19:37:44.182Z,16.42
2018-10-18T19:40:12.644Z,16.38
2018-10-18T19:42:41.079Z,16.24
2018-10-18T19:45:09.939Z,16.17
2018-10-18T19:47:38.619Z,16.26
2018-10-18T19:50:07.690Z,16.18
2018-10-18T19:52:36.339Z,16.52
2018-10-18T19:55:04.660Z,16.03
2018-10-18T19:57:33.096Z,16.07
2018-10-18T20:00:01.598Z,15.73
2018-10-18T20:02:30.077Z,15.85
2018-10-18T20:04:58.495Z,16.43
2018-10-18T20:07:26.958Z,16.40
2018-10-18T20:09:55.324Z,16.34
2018-10-18T20:12:23.747Z,16.19
2018-10-18T20:14:52.178Z,15.88
2018-10-18T20:17:20.558Z,16.18
2018-10-18T20:19:48.974Z,16.37
2018-10-18T20:22:17.371Z,16.43
2018-10-18T20:24:45.832Z,16.51
2018-10-18T20:27:14.190Z,16.41
2018-10-18T20:29:42.595Z,16.47
2018-10-18T20:32:11.098Z,16.86
2018-10-18T20:34:39.542Z,16.83
2018-10-18T20:37:07.959Z,16.74
2018-10-18T20:39:36.419Z,16.40
2018-10-18T20:42:05.002Z,16.73
2018-10-18T20:44:33.543Z,16.70
2018-10-18T20:47:02.632Z,16.79
2018-10-18T20:49:31.705Z,16.33
2018-10-18T20:52:03.007Z,16.23
2018-10-18T20:54:32.472Z,15.23
2018-10-18T20:57:04.405Z,15.97
2018-10-18T20:59:32.911Z,16.02
2018-10-18T21:02:01.435Z,15.87
2018-10-18T21:04:30.136Z,15.46
2018-10-18T21:06:58.584Z,15.40
2018-10-18T21:09:27.109Z,15.82
2018-10-18T21:11:56.608Z,15.58
2018-10-18T21:14:24.979Z,15.86
2018-10-18T21:16:53.425Z,15.96
2018-10-18T21:19:21.886Z,15.55
2018-10-18T21:21:50.302Z,15.38
2018-10-18T21:24:18.733Z,15.53
2018-10-18T21:26:47.191Z,15.16
2018-10-18T21:29:15.664Z,15.21
2018-10-18T21:31:44.167Z,15.61
2018-10-18T21:34:12.650Z,15.45
2018-10-18T21:36:41.112Z,15.23
2018-10-18T21:39:09.748Z,15.74
2018-10-18T21:41:38.415Z,16.20
2018-10-18T21:44:06.839Z,15.97
2018-10-18T21:46:35.288Z,15.86
2018-10-18T21:49:03.942Z,15.56
2018-10-18T21:51:32.377Z,15.12
2018-10-18T21:54:00.984Z,15.83
2018-10-18T21:56:29.639Z,15.80
2018-10-18T21:58:58.445Z,15.75
2018-10-18T22:01:26.956Z,15.65
2018-10-18T22:03:55.551Z,15.81
2018-10-18T22:06:24.371Z,15.92
2018-10-18T22:08:53.948Z,15.78
2018-10-18T22:11:22.466Z,16.32
2018-10-18T22:13:51.049Z,15.98
2018-10-18T22:16:19.548Z,15.93
2018-10-18T22:18:47.951Z,16.07
2018-10-18T22:21:16.584Z,15.95
2018-10-18T22:23:44.856Z,16.28
2018-10-18T22:26:13.247Z,16.25
2018-10-18T22:28:41.670Z,15.92
2018-10-18T22:31:10.087Z,15.89
2018-10-18T22:33:38.693Z,15.97
2018-10-18T22:36:07.119Z,16.20
2018-10-18T22:38:35.495Z,16.27
2018-10-18T22:41:03.933Z,15.95
2018-10-18T22:43:32.255Z,16.20
2018-10-18T22:46:00.874Z,16.10
2018-10-18T22:48:30.592Z,16.13
2018-10-18T22:51:00.349Z,16.14
2018-10-18T22:53:30.054Z,16.27
2018-10-18T22:55:58.448Z,16.39
2018-10-18T22:58:26.810Z,16.49
2018-10-18T23:00:55.244Z,16.23
2018-10-18T23:03:23.609Z,16.41
2018-10-18T23:05:51.959Z,16.31
2018-10-18T23:08:20.356Z,16.00
2018-10-18T23:10:48.684Z,16.22
2018-10-18T23:13:17.026Z,16.16
2018-10-18T23:15:45.386Z,15.84
2018-10-18T23:18:13.749Z,16.12
2018-10-18T23:20:42.166Z,15.89
2018-10-18T23:23:11.209Z,15.91
2018-10-18T23:25:39.898Z,16.16
2018-10-18T23:28:08.251Z,16.08
2018-10-18T23:30:36.710Z,16.18
2018-10-18T23:33:05.201Z,16.16
2018-10-18T23:35:33.556Z,16.00
2018-10-18T23:38:01.927Z,16.36
2018-10-18T23:40:30.341Z,16.25
2018-10-18T23:42:58.805Z,15.49
2018-10-18T23:45:27.167Z,15.37
2018-10-18T23:47:55.567Z,16.02
2018-10-18T23:50:23.987Z,15.74
2018-10-18T23:52:52.398Z,15.19
2018-10-18T23:55:20.778Z,15.60
2018-10-18T23:57:49.187Z,15.94
